PGT87TW LTAI-LTFJ
Flight info
| Callsign | PGT87TW |
|---|---|
| Flight time | 0h 57m |
| Altitude | 34000 |
| Route | EKSEN1K/18L EKSEN UL610 ETAMP |
| Aircraft | B738/M-SDE2E3FGHIRWXY/LB1 |
Departure
| Time | 2026-05-05 15:07 |
|---|---|
| Airport | Antalya International Airport (LTAI) |
Arrival
| Time | 2026-05-05 16:05 |
|---|---|
| Airport | Istanbul Sabiha Gökçen International Airport (LTFJ) |
| Time | Latitude | Longitude | Altitude | Speed | Heading |
|---|---|---|---|---|---|
| 2026-05-05 14:32 | 36.91341 | 30.79808 | 206 ft | 0 kts | 277° |
| 2026-05-05 14:53 | 36.91339 | 30.79823 | 190 ft | 4 kts | 275° |
| 2026-05-05 14:54 | 36.91337 | 30.79854 | 200 ft | 4 kts | 275° |
| 2026-05-05 14:54 | 36.91335 | 30.79881 | 206 ft | 4 kts | 261° |
| 2026-05-05 14:54 | 36.91344 | 30.79902 | 206 ft | 4 kts | 197° |
| 2026-05-05 14:54 | 36.91368 | 30.79905 | 199 ft | 4 kts | 178° |
| 2026-05-05 14:55 | 36.91385 | 30.79904 | 197 ft | 0 kts | 184° |
| 2026-05-05 14:57 | 36.91378 | 30.79904 | 198 ft | 4 kts | 185° |
| 2026-05-05 14:57 | 36.91326 | 30.79898 | 202 ft | 10 kts | 186° |
| 2026-05-05 14:57 | 36.91259 | 30.79887 | 196 ft | 12 kts | 185° |
| 2026-05-05 14:58 | 36.91181 | 30.79878 | 193 ft | 11 kts | 185° |
| 2026-05-05 14:58 | 36.91106 | 30.79870 | 196 ft | 11 kts | 185° |
| 2026-05-05 14:58 | 36.91034 | 30.79856 | 193 ft | 10 kts | 188° |
| 2026-05-05 14:58 | 36.90964 | 30.79847 | 194 ft | 10 kts | 185° |
| 2026-05-05 14:59 | 36.90906 | 30.79810 | 197 ft | 10 kts | 240° |
| 2026-05-05 14:59 | 36.90860 | 30.79749 | 193 ft | 11 kts | 203° |
| 2026-05-05 14:59 | 36.90771 | 30.79732 | 190 ft | 16 kts | 186° |
| 2026-05-05 14:59 | 36.90646 | 30.79716 | 193 ft | 19 kts | 186° |
| 2026-05-05 15:00 | 36.90512 | 30.79698 | 191 ft | 19 kts | 186° |
| 2026-05-05 15:00 | 36.90433 | 30.79701 | 198 ft | 17 kts | 158° |
| 2026-05-05 15:00 | 36.90390 | 30.79876 | 191 ft | 16 kts | 97° |
| 2026-05-05 15:00 | 36.90377 | 30.80011 | 191 ft | 15 kts | 96° |
| 2026-05-05 15:01 | 36.90365 | 30.80145 | 191 ft | 16 kts | 98° |
| 2026-05-05 15:01 | 36.90352 | 30.80284 | 194 ft | 16 kts | 97° |
| 2026-05-05 15:01 | 36.90340 | 30.80417 | 204 ft | 15 kts | 96° |
| 2026-05-05 15:01 | 36.90330 | 30.80546 | 191 ft | 15 kts | 96° |
| 2026-05-05 15:02 | 36.90319 | 30.80669 | 191 ft | 14 kts | 96° |
| 2026-05-05 15:02 | 36.90331 | 30.80781 | 200 ft | 13 kts | 45° |
| 2026-05-05 15:02 | 36.90418 | 30.80808 | 191 ft | 13 kts | 6° |
| 2026-05-05 15:02 | 36.90507 | 30.80819 | 190 ft | 13 kts | 6° |
| 2026-05-05 15:03 | 36.90593 | 30.80831 | 198 ft | 12 kts | 6° |
| 2026-05-05 15:03 | 36.90677 | 30.80843 | 198 ft | 12 kts | 6° |
| 2026-05-05 15:03 | 36.90758 | 30.80854 | 190 ft | 12 kts | 6° |
| 2026-05-05 15:03 | 36.90837 | 30.80865 | 195 ft | 11 kts | 6° |
| 2026-05-05 15:04 | 36.90889 | 30.80873 | 190 ft | 6 kts | 7° |
| 2026-05-05 15:04 | 36.90987 | 30.80885 | 206 ft | 21 kts | 5° |
| 2026-05-05 15:04 | 36.91119 | 30.80918 | 193 ft | 14 kts | 37° |
| 2026-05-05 15:04 | 36.91138 | 30.80989 | 190 ft | 9 kts | 91° |
| 2026-05-05 15:05 | 36.91099 | 30.81128 | 196 ft | 9 kts | 147° |
| 2026-05-05 15:05 | 36.91066 | 30.81134 | 196 ft | 0 kts | 187° |
| 2026-05-05 15:07 | 36.90984 | 30.81122 | 199 ft | 44 kts | 186° |
| 2026-05-05 15:07 | 36.90407 | 30.81043 | 193 ft | 120 kts | 186° |
| 2026-05-05 15:07 | 36.89383 | 30.80907 | 380 ft | 166 kts | 186° |
| 2026-05-05 15:07 | 36.88132 | 30.80774 | 890 ft | 190 kts | 180° |
| 2026-05-05 15:08 | 36.86815 | 30.80963 | 1762 ft | 197 kts | 171° |
| 2026-05-05 15:08 | 36.85404 | 30.81238 | 2330 ft | 214 kts | 171° |
| 2026-05-05 15:08 | 36.83894 | 30.81521 | 2923 ft | 224 kts | 171° |
| 2026-05-05 15:08 | 36.82326 | 30.81813 | 3604 ft | 231 kts | 171° |
| 2026-05-05 15:09 | 36.80730 | 30.82110 | 4376 ft | 234 kts | 171° |
| 2026-05-05 15:09 | 36.79125 | 30.82607 | 4948 ft | 247 kts | 156° |
| 2026-05-05 15:09 | 36.77543 | 30.83576 | 5500 ft | 257 kts | 152° |
| 2026-05-05 15:09 | 36.75919 | 30.84602 | 6167 ft | 262 kts | 152° |
| 2026-05-05 15:10 | 36.74484 | 30.85930 | 6870 ft | 265 kts | 126° |
| 2026-05-05 15:10 | 36.73725 | 30.88018 | 7519 ft | 264 kts | 99° |
| 2026-05-05 15:10 | 36.73453 | 30.90291 | 8010 ft | 280 kts | 92° |
| 2026-05-05 15:10 | 36.73283 | 30.92750 | 8646 ft | 292 kts | 92° |
| 2026-05-05 15:11 | 36.73118 | 30.95290 | 9569 ft | 295 kts | 92° |
| 2026-05-05 15:11 | 36.72936 | 30.97867 | 10345 ft | 303 kts | 92° |
| 2026-05-05 15:11 | 36.72836 | 31.00595 | 10586 ft | 327 kts | 79° |
| 2026-05-05 15:11 | 36.73678 | 31.03312 | 10820 ft | 343 kts | 51° |
| 2026-05-05 15:12 | 36.75497 | 31.05225 | 11363 ft | 346 kts | 24° |
| 2026-05-05 15:12 | 36.77771 | 31.06117 | 11987 ft | 351 kts | 5° |
| 2026-05-05 15:12 | 36.80224 | 31.06096 | 12912 ft | 349 kts | 349° |
| 2026-05-05 15:12 | 36.82579 | 31.05424 | 13694 ft | 353 kts | 343° |
| 2026-05-05 15:13 | 36.84953 | 31.04554 | 14464 ft | 358 kts | 341° |
| 2026-05-05 15:13 | 36.87339 | 31.03631 | 15274 ft | 361 kts | 341° |
| 2026-05-05 15:13 | 36.89797 | 31.02684 | 16016 ft | 367 kts | 341° |
| 2026-05-05 15:13 | 36.92256 | 31.01757 | 16779 ft | 372 kts | 342° |
| 2026-05-05 15:14 | 36.94733 | 31.00843 | 17455 ft | 378 kts | 342° |
| 2026-05-05 15:14 | 36.97270 | 30.99922 | 18250 ft | 381 kts | 342° |
| 2026-05-05 15:14 | 36.99832 | 30.99003 | 18952 ft | 383 kts | 342° |
| 2026-05-05 15:14 | 37.02406 | 30.98086 | 19657 ft | 385 kts | 342° |
| 2026-05-05 15:15 | 37.04956 | 30.97180 | 20370 ft | 388 kts | 342° |
| 2026-05-05 15:15 | 37.07554 | 30.96258 | 21048 ft | 390 kts | 341° |
| 2026-05-05 15:15 | 37.10213 | 30.95314 | 21671 ft | 394 kts | 341° |
| 2026-05-05 15:15 | 37.12868 | 30.94371 | 22260 ft | 398 kts | 341° |
| 2026-05-05 15:16 | 37.15505 | 30.93434 | 22881 ft | 400 kts | 341° |
| 2026-05-05 15:16 | 37.18230 | 30.92465 | 23504 ft | 403 kts | 341° |
| 2026-05-05 15:16 | 37.20897 | 30.91516 | 24024 ft | 406 kts | 341° |
| 2026-05-05 15:16 | 37.23625 | 30.90544 | 24528 ft | 408 kts | 341° |
| 2026-05-05 15:17 | 37.26370 | 30.89565 | 25004 ft | 412 kts | 341° |
| 2026-05-05 15:17 | 37.29130 | 30.88581 | 25465 ft | 414 kts | 341° |
| 2026-05-05 15:17 | 37.31916 | 30.87587 | 25945 ft | 417 kts | 340° |
| 2026-05-05 15:17 | 37.34716 | 30.86586 | 26392 ft | 420 kts | 340° |
| 2026-05-05 15:18 | 37.37540 | 30.85576 | 26833 ft | 423 kts | 340° |
| 2026-05-05 15:18 | 37.40378 | 30.84560 | 27244 ft | 425 kts | 340° |
| 2026-05-05 15:18 | 37.43232 | 30.83538 | 27667 ft | 428 kts | 340° |
| 2026-05-05 15:18 | 37.46103 | 30.82509 | 28065 ft | 431 kts | 340° |
| 2026-05-05 15:19 | 37.48996 | 30.81472 | 28533 ft | 431 kts | 340° |
| 2026-05-05 15:19 | 37.51846 | 30.80450 | 29210 ft | 428 kts | 340° |
| 2026-05-05 15:19 | 37.54678 | 30.79435 | 29913 ft | 424 kts | 340° |
| 2026-05-05 15:19 | 37.57508 | 30.78419 | 30430 ft | 423 kts | 340° |
| 2026-05-05 15:20 | 37.60335 | 30.77397 | 30814 ft | 423 kts | 340° |
| 2026-05-05 15:20 | 37.63174 | 30.76373 | 31228 ft | 424 kts | 341° |
| 2026-05-05 15:20 | 37.66006 | 30.75354 | 31675 ft | 424 kts | 341° |
| 2026-05-05 15:20 | 37.68838 | 30.74334 | 32178 ft | 422 kts | 341° |
| 2026-05-05 15:21 | 37.71654 | 30.73318 | 32650 ft | 421 kts | 341° |
| 2026-05-05 15:21 | 37.74463 | 30.72304 | 33045 ft | 421 kts | 341° |
| 2026-05-05 15:21 | 37.77294 | 30.71280 | 33433 ft | 422 kts | 342° |
| 2026-05-05 15:21 | 37.80093 | 30.70266 | 33907 ft | 421 kts | 342° |
| 2026-05-05 15:22 | 37.82919 | 30.69242 | 34012 ft | 425 kts | 342° |
| 2026-05-05 15:22 | 37.88618 | 30.67171 | 34025 ft | 423 kts | 341° |
| 2026-05-05 15:23 | 37.94022 | 30.64481 | 34039 ft | 417 kts | 334° |
| 2026-05-05 15:23 | 37.99339 | 30.61485 | 34037 ft | 419 kts | 335° |
| 2026-05-05 15:24 | 38.03734 | 30.59038 | 34034 ft | 420 kts | 335° |
| 2026-05-05 15:24 | 38.09118 | 30.56082 | 34033 ft | 422 kts | 335° |
| 2026-05-05 15:25 | 38.14522 | 30.53126 | 34022 ft | 423 kts | 335° |
| 2026-05-05 15:25 | 38.19936 | 30.50159 | 34030 ft | 423 kts | 335° |
| 2026-05-05 15:26 | 38.25342 | 30.47190 | 34027 ft | 423 kts | 335° |
| 2026-05-05 15:26 | 38.30747 | 30.44215 | 34027 ft | 423 kts | 335° |
| 2026-05-05 15:27 | 38.36132 | 30.41246 | 34028 ft | 422 kts | 335° |
| 2026-05-05 15:27 | 38.41512 | 30.38274 | 34033 ft | 421 kts | 335° |
| 2026-05-05 15:28 | 38.46872 | 30.35308 | 34037 ft | 421 kts | 335° |
| 2026-05-05 15:28 | 38.52232 | 30.32339 | 34036 ft | 421 kts | 335° |
| 2026-05-05 15:29 | 38.57593 | 30.29335 | 34034 ft | 421 kts | 335° |
| 2026-05-05 15:29 | 38.62960 | 30.26311 | 34028 ft | 421 kts | 335° |
| 2026-05-05 15:30 | 38.68335 | 30.23321 | 34040 ft | 421 kts | 335° |
| 2026-05-05 15:30 | 38.73715 | 30.20338 | 34041 ft | 421 kts | 335° |
| 2026-05-05 15:31 | 38.79078 | 30.17332 | 34038 ft | 421 kts | 335° |
| 2026-05-05 15:31 | 38.84457 | 30.14327 | 34040 ft | 421 kts | 335° |
| 2026-05-05 15:32 | 38.89758 | 30.11355 | 33992 ft | 412 kts | 335° |
| 2026-05-05 15:32 | 38.92371 | 30.09885 | 33673 ft | 405 kts | 335° |
| 2026-05-05 15:32 | 38.94930 | 30.08441 | 33344 ft | 401 kts | 335° |
| 2026-05-05 15:32 | 38.97464 | 30.07008 | 32944 ft | 395 kts | 335° |
| 2026-05-05 15:33 | 38.99949 | 30.05602 | 32560 ft | 390 kts | 335° |
| 2026-05-05 15:33 | 39.02424 | 30.04203 | 32162 ft | 386 kts | 335° |
| 2026-05-05 15:33 | 39.04865 | 30.02823 | 31781 ft | 382 kts | 335° |
| 2026-05-05 15:33 | 39.07293 | 30.01466 | 31352 ft | 379 kts | 335° |
| 2026-05-05 15:34 | 39.09706 | 30.00124 | 30982 ft | 375 kts | 335° |
| 2026-05-05 15:34 | 39.12093 | 29.98795 | 30610 ft | 372 kts | 335° |
| 2026-05-05 15:34 | 39.14452 | 29.97477 | 30245 ft | 369 kts | 335° |
| 2026-05-05 15:34 | 39.16789 | 29.96156 | 29841 ft | 366 kts | 335° |
| 2026-05-05 15:35 | 39.19110 | 29.94839 | 29441 ft | 362 kts | 335° |
| 2026-05-05 15:35 | 39.21382 | 29.93546 | 29075 ft | 357 kts | 335° |
| 2026-05-05 15:35 | 39.23643 | 29.92258 | 28698 ft | 353 kts | 335° |
| 2026-05-05 15:35 | 39.25880 | 29.90983 | 28326 ft | 350 kts | 335° |
| 2026-05-05 15:36 | 39.28100 | 29.89717 | 27965 ft | 348 kts | 335° |
| 2026-05-05 15:36 | 39.30322 | 29.88448 | 27618 ft | 354 kts | 335° |
| 2026-05-05 15:36 | 39.32615 | 29.87140 | 27245 ft | 365 kts | 335° |
| 2026-05-05 15:36 | 39.34942 | 29.85813 | 26861 ft | 365 kts | 335° |
| 2026-05-05 15:37 | 39.37259 | 29.84493 | 26469 ft | 361 kts | 335° |
| 2026-05-05 15:37 | 39.39555 | 29.83206 | 26029 ft | 359 kts | 336° |
| 2026-05-05 15:37 | 39.41838 | 29.81939 | 25645 ft | 355 kts | 336° |
| 2026-05-05 15:37 | 39.44100 | 29.80683 | 25269 ft | 352 kts | 336° |
| 2026-05-05 15:38 | 39.46315 | 29.79450 | 24915 ft | 349 kts | 336° |
| 2026-05-05 15:38 | 39.48516 | 29.78221 | 24559 ft | 346 kts | 336° |
| 2026-05-05 15:38 | 39.50712 | 29.76992 | 24203 ft | 343 kts | 336° |
| 2026-05-05 15:38 | 39.52895 | 29.75770 | 23854 ft | 340 kts | 336° |
| 2026-05-05 15:39 | 39.55059 | 29.74557 | 23478 ft | 337 kts | 336° |
| 2026-05-05 15:39 | 39.57208 | 29.73354 | 23076 ft | 335 kts | 336° |
| 2026-05-05 15:39 | 39.59331 | 29.72161 | 22694 ft | 332 kts | 336° |
| 2026-05-05 15:39 | 39.61443 | 29.70971 | 22316 ft | 329 kts | 336° |
| 2026-05-05 15:40 | 39.63531 | 29.69792 | 21962 ft | 326 kts | 336° |
| 2026-05-05 15:40 | 39.65607 | 29.68618 | 21620 ft | 323 kts | 336° |
| 2026-05-05 15:40 | 39.67656 | 29.67455 | 21282 ft | 320 kts | 336° |
| 2026-05-05 15:40 | 39.69692 | 29.66299 | 20953 ft | 317 kts | 336° |
| 2026-05-05 15:41 | 39.71710 | 29.65155 | 20625 ft | 317 kts | 336° |
| 2026-05-05 15:41 | 39.73730 | 29.64010 | 20301 ft | 317 kts | 336° |
| 2026-05-05 15:41 | 39.75757 | 29.62860 | 19987 ft | 322 kts | 336° |
| 2026-05-05 15:41 | 39.77820 | 29.61663 | 19643 ft | 326 kts | 334° |
| 2026-05-05 15:42 | 39.79871 | 29.60379 | 19280 ft | 326 kts | 333° |
| 2026-05-05 15:42 | 39.81898 | 29.59077 | 18873 ft | 325 kts | 333° |
| 2026-05-05 15:42 | 39.83917 | 29.57774 | 18453 ft | 324 kts | 333° |
| 2026-05-05 15:42 | 39.85934 | 29.56476 | 18028 ft | 320 kts | 333° |
| 2026-05-05 15:43 | 39.87908 | 29.55210 | 17509 ft | 313 kts | 333° |
| 2026-05-05 15:43 | 39.89855 | 29.53965 | 16820 ft | 311 kts | 333° |
| 2026-05-05 15:43 | 39.91797 | 29.52723 | 16060 ft | 312 kts | 334° |
| 2026-05-05 15:43 | 39.93738 | 29.51484 | 15456 ft | 308 kts | 334° |
| 2026-05-05 15:44 | 39.95648 | 29.50264 | 14983 ft | 305 kts | 334° |
| 2026-05-05 15:44 | 39.97553 | 29.49049 | 14607 ft | 304 kts | 334° |
| 2026-05-05 15:44 | 39.99449 | 29.47839 | 14276 ft | 301 kts | 334° |
| 2026-05-05 15:44 | 40.01320 | 29.46643 | 13943 ft | 299 kts | 334° |
| 2026-05-05 15:45 | 40.03155 | 29.45471 | 13605 ft | 296 kts | 334° |
| 2026-05-05 15:45 | 40.05006 | 29.44288 | 13251 ft | 292 kts | 334° |
| 2026-05-05 15:45 | 40.06821 | 29.43126 | 12931 ft | 289 kts | 334° |
| 2026-05-05 15:45 | 40.08612 | 29.41980 | 12625 ft | 285 kts | 334° |
| 2026-05-05 15:46 | 40.10384 | 29.40845 | 12321 ft | 282 kts | 335° |
| 2026-05-05 15:46 | 40.12136 | 29.39722 | 12031 ft | 278 kts | 335° |
| 2026-05-05 15:46 | 40.13865 | 29.38614 | 11745 ft | 274 kts | 335° |
| 2026-05-05 15:46 | 40.15564 | 29.37524 | 11439 ft | 271 kts | 335° |
| 2026-05-05 15:47 | 40.17238 | 29.36449 | 11150 ft | 268 kts | 335° |
| 2026-05-05 15:47 | 40.18341 | 29.35741 | 10970 ft | 266 kts | 335° |
| 2026-05-05 15:47 | 40.20565 | 29.34311 | 10589 ft | 266 kts | 335° |
| 2026-05-05 15:47 | 40.22221 | 29.33247 | 10299 ft | 265 kts | 335° |
| 2026-05-05 15:48 | 40.23840 | 29.32205 | 10194 ft | 254 kts | 335° |
| 2026-05-05 15:48 | 40.25402 | 29.31200 | 10079 ft | 246 kts | 335° |
| 2026-05-05 15:48 | 40.26905 | 29.30231 | 9931 ft | 239 kts | 335° |
| 2026-05-05 15:48 | 40.28394 | 29.29272 | 9681 ft | 237 kts | 335° |
| 2026-05-05 15:49 | 40.29884 | 29.28313 | 9413 ft | 241 kts | 335° |
| 2026-05-05 15:49 | 40.31403 | 29.27333 | 9152 ft | 248 kts | 334° |
| 2026-05-05 15:49 | 40.32974 | 29.26320 | 8875 ft | 254 kts | 334° |
| 2026-05-05 15:49 | 40.34570 | 29.25290 | 8590 ft | 255 kts | 335° |
| 2026-05-05 15:50 | 40.36124 | 29.24285 | 8290 ft | 253 kts | 335° |
| 2026-05-05 15:50 | 40.37680 | 29.23280 | 8172 ft | 245 kts | 335° |
| 2026-05-05 15:50 | 40.39210 | 29.22290 | 8052 ft | 246 kts | 334° |
| 2026-05-05 15:50 | 40.40565 | 29.20936 | 7987 ft | 245 kts | 313° |
| 2026-05-05 15:51 | 40.41517 | 29.19100 | 7998 ft | 242 kts | 304° |
| 2026-05-05 15:51 | 40.42372 | 29.17210 | 7992 ft | 241 kts | 304° |
| 2026-05-05 15:51 | 40.43227 | 29.15315 | 7993 ft | 242 kts | 304° |
| 2026-05-05 15:51 | 40.44097 | 29.13397 | 8001 ft | 246 kts | 302° |
| 2026-05-05 15:52 | 40.44582 | 29.11237 | 7994 ft | 253 kts | 276° |
| 2026-05-05 15:52 | 40.44498 | 29.08911 | 7991 ft | 256 kts | 268° |
| 2026-05-05 15:52 | 40.44304 | 29.06586 | 7992 ft | 257 kts | 268° |
| 2026-05-05 15:52 | 40.44108 | 29.04253 | 7989 ft | 257 kts | 268° |
| 2026-05-05 15:53 | 40.43922 | 29.01924 | 7984 ft | 257 kts | 268° |
| 2026-05-05 15:53 | 40.43796 | 28.99587 | 7958 ft | 252 kts | 279° |
| 2026-05-05 15:53 | 40.44413 | 28.97550 | 7671 ft | 237 kts | 315° |
| 2026-05-05 15:53 | 40.45759 | 28.96378 | 7160 ft | 235 kts | 340° |
| 2026-05-05 15:54 | 40.47352 | 28.95926 | 6627 ft | 235 kts | 358° |
| 2026-05-05 15:54 | 40.48999 | 28.96084 | 6220 ft | 238 kts | 6° |
| 2026-05-05 15:54 | 40.50634 | 28.96399 | 6011 ft | 234 kts | 7° |
| 2026-05-05 15:54 | 40.52236 | 28.96727 | 5887 ft | 233 kts | 7° |
| 2026-05-05 15:55 | 40.53819 | 28.97047 | 5758 ft | 235 kts | 7° |
| 2026-05-05 15:55 | 40.55461 | 28.97374 | 5628 ft | 237 kts | 7° |
| 2026-05-05 15:55 | 40.57091 | 28.97693 | 5504 ft | 237 kts | 7° |
| 2026-05-05 15:55 | 40.58718 | 28.98008 | 5384 ft | 235 kts | 7° |
| 2026-05-05 15:56 | 40.60278 | 28.98307 | 5245 ft | 230 kts | 7° |
| 2026-05-05 15:56 | 40.61838 | 28.98606 | 5141 ft | 225 kts | 7° |
| 2026-05-05 15:56 | 40.63383 | 28.98900 | 5009 ft | 223 kts | 7° |
| 2026-05-05 15:56 | 40.64915 | 28.99192 | 4901 ft | 222 kts | 6° |
| 2026-05-05 15:57 | 40.66416 | 28.99476 | 4777 ft | 220 kts | 7° |
| 2026-05-05 15:57 | 40.67931 | 28.99763 | 4665 ft | 219 kts | 6° |
| 2026-05-05 15:57 | 40.69432 | 29.00047 | 4546 ft | 218 kts | 7° |
| 2026-05-05 15:57 | 40.70937 | 29.00332 | 4435 ft | 220 kts | 7° |
| 2026-05-05 15:58 | 40.72468 | 29.00622 | 4328 ft | 224 kts | 7° |
| 2026-05-05 15:58 | 40.74014 | 29.00914 | 4203 ft | 225 kts | 7° |
| 2026-05-05 15:58 | 40.75542 | 29.01204 | 4061 ft | 218 kts | 7° |
| 2026-05-05 15:58 | 40.76944 | 29.01833 | 3984 ft | 214 kts | 36° |
| 2026-05-05 15:59 | 40.77928 | 29.03269 | 4005 ft | 211 kts | 53° |
| 2026-05-05 15:59 | 40.78698 | 29.04841 | 3975 ft | 196 kts | 55° |
| 2026-05-05 15:59 | 40.79390 | 29.06305 | 3976 ft | 179 kts | 54° |
| 2026-05-05 15:59 | 40.80048 | 29.07604 | 3962 ft | 161 kts | 53° |
| 2026-05-05 16:00 | 40.80601 | 29.08855 | 3795 ft | 156 kts | 59° |
| 2026-05-05 16:00 | 40.81073 | 29.10090 | 3597 ft | 156 kts | 60° |
| 2026-05-05 16:00 | 40.81539 | 29.11354 | 3393 ft | 156 kts | 61° |
| 2026-05-05 16:00 | 40.82009 | 29.12639 | 3176 ft | 155 kts | 62° |
| 2026-05-05 16:01 | 40.82475 | 29.13910 | 2973 ft | 154 kts | 62° |
| 2026-05-05 16:01 | 40.82942 | 29.15183 | 2787 ft | 154 kts | 62° |
| 2026-05-05 16:01 | 40.83411 | 29.16460 | 2563 ft | 155 kts | 63° |
| 2026-05-05 16:01 | 40.83878 | 29.17731 | 2357 ft | 154 kts | 63° |
| 2026-05-05 16:02 | 40.84342 | 29.18996 | 2153 ft | 153 kts | 63° |
| 2026-05-05 16:02 | 40.84808 | 29.20262 | 1949 ft | 153 kts | 63° |
| 2026-05-05 16:02 | 40.85273 | 29.21530 | 1751 ft | 153 kts | 63° |
| 2026-05-05 16:02 | 40.85739 | 29.22797 | 1544 ft | 153 kts | 64° |
| 2026-05-05 16:03 | 40.86203 | 29.24058 | 1350 ft | 152 kts | 64° |
| 2026-05-05 16:03 | 40.86673 | 29.25311 | 1146 ft | 153 kts | 63° |
| 2026-05-05 16:03 | 40.87131 | 29.26567 | 938 ft | 150 kts | 65° |
| 2026-05-05 16:03 | 40.87570 | 29.27795 | 735 ft | 148 kts | 63° |
| 2026-05-05 16:04 | 40.88015 | 29.28980 | 522 ft | 141 kts | 63° |
| 2026-05-05 16:04 | 40.88433 | 29.30115 | 357 ft | 136 kts | 63° |
| 2026-05-05 16:04 | 40.88822 | 29.31184 | 299 ft | 118 kts | 66° |
| 2026-05-05 16:04 | 40.89012 | 29.31726 | 299 ft | 89 kts | 66° |
| 2026-05-05 16:05 | 40.89191 | 29.32189 | 300 ft | 33 kts | 61° |
| 2026-05-05 16:05 | 40.89339 | 29.32403 | 302 ft | 28 kts | 35° |
| 2026-05-05 16:05 | 40.89397 | 29.32456 | 303 ft | 4 kts | 34° |
| 2026-05-05 16:05 | 40.89403 | 29.32462 | 302 ft | 4 kts | 33° |
| 2026-05-05 16:06 | 40.89464 | 29.32508 | 301 ft | 14 kts | 17° |
| 2026-05-05 16:06 | 40.89504 | 29.32465 | 303 ft | 0 kts | 263° |
| 2026-05-05 16:06 | 40.89499 | 29.32442 | 303 ft | 6 kts | 252° |
| 2026-05-05 16:06 | 40.89523 | 29.32370 | 302 ft | 12 kts | 324° |
| 2026-05-05 16:07 | 40.89607 | 29.32337 | 302 ft | 14 kts | 342° |
| 2026-05-05 16:07 | 40.89699 | 29.32279 | 302 ft | 15 kts | 333° |
| 2026-05-05 16:07 | 40.89790 | 29.32218 | 307 ft | 14 kts | 334° |
| 2026-05-05 16:07 | 40.89876 | 29.32164 | 308 ft | 14 kts | 335° |
| 2026-05-05 16:08 | 40.89960 | 29.32110 | 310 ft | 13 kts | 333° |
| 2026-05-05 16:08 | 40.90040 | 29.32058 | 310 ft | 13 kts | 335° |
| 2026-05-05 16:08 | 40.90108 | 29.32103 | 310 ft | 13 kts | 62° |
| 2026-05-05 16:08 | 40.90144 | 29.32206 | 310 ft | 12 kts | 65° |
| 2026-05-05 16:09 | 40.90181 | 29.32306 | 310 ft | 12 kts | 63° |
| 2026-05-05 16:09 | 40.90221 | 29.32410 | 310 ft | 14 kts | 65° |
| 2026-05-05 16:09 | 40.90271 | 29.32549 | 308 ft | 18 kts | 63° |
| 2026-05-05 16:09 | 40.90302 | 29.32588 | 309 ft | 0 kts | 9° |
| 2026-05-05 16:10 | 40.90311 | 29.32588 | 309 ft | 5 kts | 357° |
| 2026-05-05 16:10 | 40.90369 | 29.32557 | 310 ft | 14 kts | 334° |
| 2026-05-05 16:10 | 40.90473 | 29.32492 | 311 ft | 18 kts | 334° |
| 2026-05-05 16:10 | 40.90555 | 29.32437 | 310 ft | 0 kts | 332° |
| 2026-05-05 16:11 | 40.90575 | 29.32420 | 310 ft | 0 kts | 320° |
| 2026-05-05 16:12 | 40.90576 | 29.32418 | 310 ft | 1 kts | 317° |
| 2026-05-05 16:12 | 40.90634 | 29.32328 | 310 ft | 13 kts | 327° |
| 2026-05-05 16:13 | 40.90705 | 29.32281 | 310 ft | 0 kts | 334° |
| 2026-05-05 16:13 | 40.90712 | 29.32276 | 310 ft | 3 kts | 331° |
| 2026-05-05 16:14 | 40.90719 | 29.32171 | 310 ft | 4 kts | 245° |
| 2026-05-05 16:14 | 40.90683 | 29.32139 | 310 ft | 4 kts | 156° |
| 2026-05-05 16:15 | 40.90648 | 29.32160 | 310 ft | 2 kts | 154° |
| 2026-05-05 16:15 | 40.90637 | 29.32168 | 310 ft | 0 kts | 154° |
| 2026-05-05 16:16 | 40.90633 | 29.32170 | 310 ft | 0 kts | 154° |